sensor_id;sensor_type;location;lat;lon;timestamp;P1;durP1;ratioP1;P2;durP2;ratioP2
12593;SDS011;6362;50.208;9.182;2022-09-03T00:01:52;2.22;;;0.77;;
12593;SDS011;6362;50.208;9.182;2022-09-03T00:04:24;1.48;;;0.70;;
12593;SDS011;6362;50.208;9.182;2022-09-03T00:07:03;2.47;;;0.70;;
12593;SDS011;6362;50.208;9.182;2022-09-03T00:09:40;1.40;;;0.75;;
12593;SDS011;6362;50.208;9.182;2022-09-03T00:12:21;2.83;;;0.80;;
12593;SDS011;6362;50.208;9.182;2022-09-03T00:14:52;1.02;;;0.70;;
12593;SDS011;6362;50.208;9.182;2022-09-03T00:17:23;2.55;;;0.60;;
12593;SDS011;6362;50.208;9.182;2022-09-03T00:20:02;2.10;;;0.65;;
12593;SDS011;6362;50.208;9.182;2022-09-03T00:22:38;2.60;;;0.70;;
12593;SDS011;6362;50.208;9.182;2022-09-03T00:25:12;3.47;;;0.70;;
12593;SDS011;6362;50.208;9.182;2022-09-03T00:27:42;5.88;;;1.17;;
12593;SDS011;6362;50.208;9.182;2022-09-03T00:30:15;2.38;;;0.80;;
12593;SDS011;6362;50.208;9.182;2022-09-03T00:32:46;1.45;;;0.70;;
12593;SDS011;6362;50.208;9.182;2022-09-03T00:38:06;1.75;;;0.70;;
12593;SDS011;6362;50.208;9.182;2022-09-03T00:40:37;1.92;;;0.70;;
12593;SDS011;6362;50.208;9.182;2022-09-03T00:57:18;1.20;;;0.70;;
12593;SDS011;6362;50.208;9.182;2022-09-03T01:02:33;1.52;;;0.70;;
12593;SDS011;6362;50.208;9.182;2022-09-03T01:05:16;1.50;;;0.70;;
12593;SDS011;6362;50.208;9.182;2022-09-03T01:07:58;1.70;;;0.70;;
12593;SDS011;6362;50.208;9.182;2022-09-03T01:10:33;1.13;;;0.70;;
12593;SDS011;6362;50.208;9.182;2022-09-03T01:13:15;4.15;;;0.80;;
12593;SDS011;6362;50.208;9.182;2022-09-03T01:15:48;3.00;;;0.80;;
12593;SDS011;6362;50.208;9.182;2022-09-03T01:32:13;1.40;;;0.70;;
12593;SDS011;6362;50.208;9.182;2022-09-03T01:48:29;1.52;;;0.80;;
12593;SDS011;6362;50.208;9.182;2022-09-03T01:51:08;2.28;;;0.70;;
12593;SDS011;6362;50.208;9.182;2022-09-03T01:59:30;1.63;;;0.65;;
12593;SDS011;6362;50.208;9.182;2022-09-03T02:02:09;2.38;;;0.80;;
12593;SDS011;6362;50.208;9.182;2022-09-03T02:04:57;2.28;;;0.70;;
12593;SDS011;6362;50.208;9.182;2022-09-03T02:07:26;2.67;;;0.90;;
12593;SDS011;6362;50.208;9.182;2022-09-03T02:09:58;2.67;;;0.70;;
12593;SDS011;6362;50.208;9.182;2022-09-03T02:12:25;2.00;;;0.80;;
12593;SDS011;6362;50.208;9.182;2022-09-03T02:14:57;1.95;;;0.70;;
12593;SDS011;6362;50.208;9.182;2022-09-03T02:17:28;4.53;;;0.70;;
12593;SDS011;6362;50.208;9.182;2022-09-03T02:19:55;1.35;;;0.70;;
12593;SDS011;6362;50.208;9.182;2022-09-03T02:22:22;2.15;;;0.90;;
12593;SDS011;6362;50.208;9.182;2022-09-03T02:24:48;2.20;;;0.80;;
12593;SDS011;6362;50.208;9.182;2022-09-03T02:27:13;1.63;;;0.80;;
12593;SDS011;6362;50.208;9.182;2022-09-03T02:29:39;2.88;;;0.90;;
12593;SDS011;6362;50.208;9.182;2022-09-03T02:32:05;2.58;;;0.70;;
12593;SDS011;6362;50.208;9.182;2022-09-03T02:34:30;1.52;;;0.70;;
12593;SDS011;6362;50.208;9.182;2022-09-03T02:36:56;2.05;;;0.73;;
12593;SDS011;6362;50.208;9.182;2022-09-03T02:39:21;2.63;;;0.80;;
12593;SDS011;6362;50.208;9.182;2022-09-03T02:41:52;2.35;;;0.85;;
12593;SDS011;6362;50.208;9.182;2022-09-03T02:44:22;1.58;;;0.80;;
12593;SDS011;6362;50.208;9.182;2022-09-03T02:46:59;2.83;;;0.70;;
12593;SDS011;6362;50.208;9.182;2022-09-03T02:49:28;3.45;;;0.80;;
12593;SDS011;6362;50.208;9.182;2022-09-03T02:51:58;3.20;;;0.80;;
12593;SDS011;6362;50.208;9.182;2022-09-03T02:54:26;3.90;;;0.80;;
12593;SDS011;6362;50.208;9.182;2022-09-03T02:56:52;1.88;;;0.80;;
12593;SDS011;6362;50.208;9.182;2022-09-03T02:59:18;2.47;;;0.90;;
12593;SDS011;6362;50.208;9.182;2022-09-03T03:01:46;1.40;;;0.65;;
12593;SDS011;6362;50.208;9.182;2022-09-03T03:04:12;1.95;;;0.90;;
12593;SDS011;6362;50.208;9.182;2022-09-03T03:06:38;2.20;;;0.75;;
12593;SDS011;6362;50.208;9.182;2022-09-03T03:09:03;1.88;;;0.70;;
12593;SDS011;6362;50.208;9.182;2022-09-03T03:11:29;1.67;;;0.93;;
12593;SDS011;6362;50.208;9.182;2022-09-03T03:13:59;2.15;;;0.70;;
12593;SDS011;6362;50.208;9.182;2022-09-03T03:16:24;1.55;;;0.75;;
12593;SDS011;6362;50.208;9.182;2022-09-03T03:18:49;2.13;;;0.70;;
12593;SDS011;6362;50.208;9.182;2022-09-03T03:21:17;2.53;;;0.98;;
12593;SDS011;6362;50.208;9.182;2022-09-03T03:23:43;3.55;;;0.90;;
12593;SDS011;6362;50.208;9.182;2022-09-03T03:26:10;2.58;;;0.75;;
12593;SDS011;6362;50.208;9.182;2022-09-03T03:28:37;2.53;;;0.80;;
12593;SDS011;6362;50.208;9.182;2022-09-03T03:33:32;2.75;;;0.88;;
12593;SDS011;6362;50.208;9.182;2022-09-03T03:36:02;3.10;;;0.80;;
12593;SDS011;6362;50.208;9.182;2022-09-03T03:38:29;2.13;;;0.80;;
12593;SDS011;6362;50.208;9.182;2022-09-03T03:40:55;2.25;;;0.90;;
12593;SDS011;6362;50.208;9.182;2022-09-03T03:43:20;1.55;;;0.70;;
12593;SDS011;6362;50.208;9.182;2022-09-03T03:45:54;6.10;;;0.90;;
12593;SDS011;6362;50.208;9.182;2022-09-03T03:48:23;2.67;;;0.70;;
12593;SDS011;6362;50.208;9.182;2022-09-03T03:50:50;7.15;;;1.10;;
12593;SDS011;6362;50.208;9.182;2022-09-03T03:53:15;1.83;;;0.70;;
12593;SDS011;6362;50.208;9.182;2022-09-03T03:55:41;1.52;;;0.80;;
12593;SDS011;6362;50.208;9.182;2022-09-03T03:58:06;2.40;;;0.80;;
12593;SDS011;6362;50.208;9.182;2022-09-03T04:00:32;1.92;;;0.77;;
12593;SDS011;6362;50.208;9.182;2022-09-03T04:03:01;2.38;;;0.90;;
12593;SDS011;6362;50.208;9.182;2022-09-03T04:05:28;2.17;;;0.90;;
12593;SDS011;6362;50.208;9.182;2022-09-03T04:07:53;1.63;;;0.70;;
12593;SDS011;6362;50.208;9.182;2022-09-03T04:10:19;1.35;;;0.80;;
12593;SDS011;6362;50.208;9.182;2022-09-03T04:12:44;1.50;;;0.70;;
12593;SDS011;6362;50.208;9.182;2022-09-03T04:15:11;1.90;;;0.90;;
12593;SDS011;6362;50.208;9.182;2022-09-03T04:17:38;1.70;;;0.80;;
12593;SDS011;6362;50.208;9.182;2022-09-03T04:20:04;4.55;;;0.80;;
12593;SDS011;6362;50.208;9.182;2022-09-03T04:22:30;2.95;;;0.93;;
12593;SDS011;6362;50.208;9.182;2022-09-03T04:24:55;2.33;;;0.88;;
12593;SDS011;6362;50.208;9.182;2022-09-03T04:27:21;1.95;;;0.80;;
12593;SDS011;6362;50.208;9.182;2022-09-03T04:29:46;2.55;;;1.00;;
12593;SDS011;6362;50.208;9.182;2022-09-03T04:32:12;1.55;;;0.82;;
12593;SDS011;6362;50.208;9.182;2022-09-03T04:34:56;3.15;;;0.80;;
12593;SDS011;6362;50.208;9.182;2022-09-03T04:37:21;2.88;;;0.90;;
12593;SDS011;6362;50.208;9.182;2022-09-03T04:39:46;2.72;;;0.82;;
12593;SDS011;6362;50.208;9.182;2022-09-03T04:42:12;2.53;;;0.80;;
12593;SDS011;6362;50.208;9.182;2022-09-03T04:44:38;2.85;;;0.80;;
12593;SDS011;6362;50.208;9.182;2022-09-03T04:47:05;2.10;;;0.80;;
12593;SDS011;6362;50.208;9.182;2022-09-03T04:49:30;1.40;;;0.70;;
12593;SDS011;6362;50.208;9.182;2022-09-03T04:51:55;4.53;;;0.75;;
12593;SDS011;6362;50.208;9.182;2022-09-03T04:54:21;1.42;;;0.70;;
12593;SDS011;6362;50.208;9.182;2022-09-03T04:56:46;3.17;;;1.23;;
12593;SDS011;6362;50.208;9.182;2022-09-03T04:59:12;2.78;;;0.70;;
12593;SDS011;6362;50.208;9.182;2022-09-03T05:01:38;2.70;;;0.90;;
12593;SDS011;6362;50.208;9.182;2022-09-03T05:04:05;3.13;;;0.80;;
12593;SDS011;6362;50.208;9.182;2022-09-03T05:06:32;1.75;;;0.80;;
12593;SDS011;6362;50.208;9.182;2022-09-03T05:08:58;2.58;;;0.75;;
12593;SDS011;6362;50.208;9.182;2022-09-03T05:11:25;2.80;;;0.70;;
12593;SDS011;6362;50.208;9.182;2022-09-03T05:13:53;1.98;;;0.82;;
12593;SDS011;6362;50.208;9.182;2022-09-03T05:16:20;1.88;;;0.90;;
12593;SDS011;6362;50.208;9.182;2022-09-03T05:18:47;1.80;;;0.80;;
12593;SDS011;6362;50.208;9.182;2022-09-03T05:21:17;2.70;;;0.88;;
12593;SDS011;6362;50.208;9.182;2022-09-03T05:23:46;2.70;;;0.90;;
12593;SDS011;6362;50.208;9.182;2022-09-03T05:26:18;1.77;;;0.65;;
12593;SDS011;6362;50.208;9.182;2022-09-03T05:28:45;5.32;;;0.80;;
12593;SDS011;6362;50.208;9.182;2022-09-03T05:31:15;1.75;;;0.70;;
12593;SDS011;6362;50.208;9.182;2022-09-03T05:33:43;5.45;;;0.85;;
12593;SDS011;6362;50.208;9.182;2022-09-03T05:36:11;1.30;;;0.70;;
12593;SDS011;6362;50.208;9.182;2022-09-03T05:38:38;2.60;;;0.73;;
12593;SDS011;6362;50.208;9.182;2022-09-03T05:41:05;1.23;;;0.73;;
12593;SDS011;6362;50.208;9.182;2022-09-03T05:43:32;2.00;;;0.80;;
12593;SDS011;6362;50.208;9.182;2022-09-03T05:45:59;2.45;;;0.80;;
12593;SDS011;6362;50.208;9.182;2022-09-03T05:48:25;2.13;;;0.70;;
12593;SDS011;6362;50.208;9.182;2022-09-03T05:50:59;6.38;;;1.45;;
12593;SDS011;6362;50.208;9.182;2022-09-03T05:53:29;3.63;;;0.80;;
12593;SDS011;6362;50.208;9.182;2022-09-03T05:55:58;3.35;;;0.98;;
12593;SDS011;6362;50.208;9.182;2022-09-03T05:58:32;1.83;;;0.80;;
12593;SDS011;6362;50.208;9.182;2022-09-03T06:03:24;2.13;;;0.82;;
12593;SDS011;6362;50.208;9.182;2022-09-03T06:05:50;3.03;;;0.70;;
12593;SDS011;6362;50.208;9.182;2022-09-03T06:08:16;1.27;;;0.85;;
12593;SDS011;6362;50.208;9.182;2022-09-03T06:10:42;1.75;;;0.80;;
12593;SDS011;6362;50.208;9.182;2022-09-03T06:13:08;2.10;;;0.98;;
12593;SDS011;6362;50.208;9.182;2022-09-03T06:15:34;2.30;;;0.80;;
12593;SDS011;6362;50.208;9.182;2022-09-03T06:18:00;2.33;;;0.80;;
12593;SDS011;6362;50.208;9.182;2022-09-03T06:20:25;1.38;;;0.73;;
12593;SDS011;6362;50.208;9.182;2022-09-03T06:22:53;1.92;;;0.95;;
12593;SDS011;6362;50.208;9.182;2022-09-03T06:25:22;1.80;;;0.80;;
12593;SDS011;6362;50.208;9.182;2022-09-03T06:27:47;4.15;;;1.10;;
12593;SDS011;6362;50.208;9.182;2022-09-03T06:30:13;1.48;;;0.80;;
12593;SDS011;6362;50.208;9.182;2022-09-03T06:32:43;2.78;;;0.75;;
12593;SDS011;6362;50.208;9.182;2022-09-03T06:35:09;4.10;;;0.80;;
12593;SDS011;6362;50.208;9.182;2022-09-03T06:37:38;1.65;;;0.85;;
12593;SDS011;6362;50.208;9.182;2022-09-03T06:40:04;1.90;;;0.93;;
12593;SDS011;6362;50.208;9.182;2022-09-03T06:42:32;1.67;;;1.00;;
12593;SDS011;6362;50.208;9.182;2022-09-03T06:44:58;3.17;;;0.90;;
12593;SDS011;6362;50.208;9.182;2022-09-03T06:47:23;2.03;;;0.80;;
12593;SDS011;6362;50.208;9.182;2022-09-03T06:49:49;3.05;;;1.30;;
12593;SDS011;6362;50.208;9.182;2022-09-03T06:52:14;1.10;;;0.73;;
12593;SDS011;6362;50.208;9.182;2022-09-03T06:54:40;1.83;;;0.98;;
12593;SDS011;6362;50.208;9.182;2022-09-03T06:57:05;3.67;;;0.82;;
12593;SDS011;6362;50.208;9.182;2022-09-03T06:59:30;3.55;;;0.90;;
12593;SDS011;6362;50.208;9.182;2022-09-03T07:01:56;1.92;;;0.90;;
12593;SDS011;6362;50.208;9.182;2022-09-03T07:04:24;2.65;;;0.90;;
12593;SDS011;6362;50.208;9.182;2022-09-03T07:06:51;3.25;;;0.90;;
12593;SDS011;6362;50.208;9.182;2022-09-03T07:09:16;1.45;;;0.75;;
12593;SDS011;6362;50.208;9.182;2022-09-03T07:11:43;3.13;;;0.90;;
12593;SDS011;6362;50.208;9.182;2022-09-03T07:14:12;1.48;;;0.75;;
12593;SDS011;6362;50.208;9.182;2022-09-03T07:16:38;4.50;;;0.82;;
12593;SDS011;6362;50.208;9.182;2022-09-03T07:19:06;1.50;;;0.80;;
12593;SDS011;6362;50.208;9.182;2022-09-03T07:21:33;2.40;;;1.00;;
12593;SDS011;6362;50.208;9.182;2022-09-03T07:24:03;1.90;;;0.80;;
12593;SDS011;6362;50.208;9.182;2022-09-03T07:26:30;6.38;;;0.90;;
12593;SDS011;6362;50.208;9.182;2022-09-03T07:28:58;3.67;;;1.00;;
12593;SDS011;6362;50.208;9.182;2022-09-03T07:31:29;3.55;;;0.93;;
12593;SDS011;6362;50.208;9.182;2022-09-03T07:34:05;3.53;;;1.10;;
12593;SDS011;6362;50.208;9.182;2022-09-03T07:36:35;4.07;;;0.80;;
12593;SDS011;6362;50.208;9.182;2022-09-03T07:39:11;1.55;;;0.90;;
12593;SDS011;6362;50.208;9.182;2022-09-03T07:41:38;1.80;;;0.98;;
12593;SDS011;6362;50.208;9.182;2022-09-03T07:44:09;2.85;;;0.80;;
12593;SDS011;6362;50.208;9.182;2022-09-03T07:46:37;2.45;;;0.82;;
12593;SDS011;6362;50.208;9.182;2022-09-03T07:49:04;2.97;;;0.85;;
12593;SDS011;6362;50.208;9.182;2022-09-03T07:51:32;2.20;;;0.88;;
12593;SDS011;6362;50.208;9.182;2022-09-03T07:54:00;3.38;;;0.90;;
12593;SDS011;6362;50.208;9.182;2022-09-03T07:56:34;2.03;;;0.80;;
12593;SDS011;6362;50.208;9.182;2022-09-03T07:59:00;3.20;;;0.98;;
12593;SDS011;6362;50.208;9.182;2022-09-03T08:01:27;1.95;;;0.75;;
12593;SDS011;6362;50.208;9.182;2022-09-03T08:03:55;3.33;;;0.90;;
12593;SDS011;6362;50.208;9.182;2022-09-03T08:06:23;3.88;;;0.90;;
12593;SDS011;6362;50.208;9.182;2022-09-03T08:08:53;2.13;;;1.08;;
12593;SDS011;6362;50.208;9.182;2022-09-03T08:11:24;4.80;;;0.98;;
12593;SDS011;6362;50.208;9.182;2022-09-03T08:13:54;5.10;;;1.10;;
12593;SDS011;6362;50.208;9.182;2022-09-03T08:16:25;3.75;;;1.00;;
12593;SDS011;6362;50.208;9.182;2022-09-03T08:18:52;2.63;;;1.13;;
12593;SDS011;6362;50.208;9.182;2022-09-03T08:21:18;1.40;;;0.80;;
12593;SDS011;6362;50.208;9.182;2022-09-03T08:23:44;1.77;;;1.00;;
12593;SDS011;6362;50.208;9.182;2022-09-03T08:26:12;4.53;;;1.15;;
12593;SDS011;6362;50.208;9.182;2022-09-03T08:28:39;5.15;;;1.10;;
12593;SDS011;6362;50.208;9.182;2022-09-03T08:31:08;3.95;;;1.25;;
12593;SDS011;6362;50.208;9.182;2022-09-03T08:33:44;3.08;;;1.20;;
12593;SDS011;6362;50.208;9.182;2022-09-03T08:38:42;4.95;;;1.13;;
12593;SDS011;6362;50.208;9.182;2022-09-03T08:41:26;4.65;;;1.40;;
12593;SDS011;6362;50.208;9.182;2022-09-03T08:46:54;2.10;;;1.25;;
12593;SDS011;6362;50.208;9.182;2022-09-03T08:52:03;3.15;;;1.30;;
12593;SDS011;6362;50.208;9.182;2022-09-03T08:54:32;3.33;;;1.33;;
12593;SDS011;6362;50.208;9.182;2022-09-03T08:57:00;2.83;;;1.30;;
12593;SDS011;6362;50.208;9.182;2022-09-03T08:59:30;2.42;;;1.23;;
12593;SDS011;6362;50.208;9.182;2022-09-03T09:02:17;2.50;;;1.15;;
12593;SDS011;6362;50.208;9.182;2022-09-03T09:10:11;4.00;;;1.05;;
12593;SDS011;6362;50.208;9.182;2022-09-03T09:12:44;3.28;;;0.82;;
12593;SDS011;6362;50.208;9.182;2022-09-03T09:20:32;1.50;;;1.00;;
12593;SDS011;6362;50.208;9.182;2022-09-03T09:25:30;2.65;;;0.93;;
12593;SDS011;6362;50.208;9.182;2022-09-03T09:28:03;3.47;;;1.10;;
12593;SDS011;6362;50.208;9.182;2022-09-03T09:30:38;2.80;;;1.08;;
12593;SDS011;6362;50.208;9.182;2022-09-03T09:33:04;2.47;;;1.10;;
12593;SDS011;6362;50.208;9.182;2022-09-03T09:35:31;2.65;;;1.08;;
12593;SDS011;6362;50.208;9.182;2022-09-03T09:37:57;3.20;;;1.10;;
12593;SDS011;6362;50.208;9.182;2022-09-03T09:42:50;2.17;;;1.10;;
12593;SDS011;6362;50.208;9.182;2022-09-03T09:45:22;1.88;;;1.08;;
12593;SDS011;6362;50.208;9.182;2022-09-03T09:47:48;3.10;;;1.10;;
12593;SDS011;6362;50.208;9.182;2022-09-03T09:50:19;6.47;;;1.05;;
12593;SDS011;6362;50.208;9.182;2022-09-03T09:52:46;2.70;;;1.00;;
12593;SDS011;6362;50.208;9.182;2022-09-03T09:55:16;2.40;;;1.10;;
12593;SDS011;6362;50.208;9.182;2022-09-03T09:57:43;1.85;;;0.90;;
12593;SDS011;6362;50.208;9.182;2022-09-03T10:00:10;2.63;;;1.00;;
12593;SDS011;6362;50.208;9.182;2022-09-03T10:02:59;2.58;;;0.90;;
12593;SDS011;6362;50.208;9.182;2022-09-03T10:05:25;1.52;;;0.88;;
12593;SDS011;6362;50.208;9.182;2022-09-03T10:10:45;4.45;;;1.20;;
12593;SDS011;6362;50.208;9.182;2022-09-03T10:13:17;2.10;;;0.95;;
12593;SDS011;6362;50.208;9.182;2022-09-03T10:15:56;4.32;;;1.00;;
12593;SDS011;6362;50.208;9.182;2022-09-03T10:21:10;2.80;;;0.80;;
12593;SDS011;6362;50.208;9.182;2022-09-03T10:23:47;2.10;;;0.90;;
12593;SDS011;6362;50.208;9.182;2022-09-03T10:26:18;3.50;;;1.27;;
12593;SDS011;6362;50.208;9.182;2022-09-03T10:28:50;1.83;;;0.80;;
12593;SDS011;6362;50.208;9.182;2022-09-03T10:31:20;3.90;;;1.05;;
12593;SDS011;6362;50.208;9.182;2022-09-03T10:34:13;3.45;;;0.90;;
12593;SDS011;6362;50.208;9.182;2022-09-03T10:36:59;1.80;;;0.90;;
12593;SDS011;6362;50.208;9.182;2022-09-03T10:42:13;4.15;;;0.90;;
12593;SDS011;6362;50.208;9.182;2022-09-03T10:50:21;2.88;;;0.90;;
12593;SDS011;6362;50.208;9.182;2022-09-03T10:55:22;2.70;;;0.80;;
12593;SDS011;6362;50.208;9.182;2022-09-03T11:00:59;1.77;;;0.90;;
12593;SDS011;6362;50.208;9.182;2022-09-03T11:03:34;2.67;;;0.90;;
12593;SDS011;6362;50.208;9.182;2022-09-03T11:08:42;2.40;;;0.95;;
12593;SDS011;6362;50.208;9.182;2022-09-03T11:11:15;3.85;;;1.20;;
12593;SDS011;6362;50.208;9.182;2022-09-03T11:13:50;2.38;;;1.08;;
12593;SDS011;6362;50.208;9.182;2022-09-03T11:16:22;4.72;;;1.10;;
12593;SDS011;6362;50.208;9.182;2022-09-03T11:18:54;2.45;;;1.00;;
12593;SDS011;6362;50.208;9.182;2022-09-03T11:21:32;2.30;;;1.00;;
12593;SDS011;6362;50.208;9.182;2022-09-03T11:24:10;2.20;;;1.00;;
12593;SDS011;6362;50.208;9.182;2022-09-03T11:26:39;2.20;;;0.98;;
12593;SDS011;6362;50.208;9.182;2022-09-03T11:29:12;3.95;;;1.10;;
12593;SDS011;6362;50.208;9.182;2022-09-03T11:31:45;3.53;;;1.10;;
12593;SDS011;6362;50.208;9.182;2022-09-03T11:34:43;4.75;;;1.17;;
12593;SDS011;6362;50.208;9.182;2022-09-03T11:37:26;3.78;;;1.13;;
12593;SDS011;6362;50.208;9.182;2022-09-03T11:39:58;3.03;;;0.90;;
12593;SDS011;6362;50.208;9.182;2022-09-03T11:42:30;2.65;;;1.10;;
12593;SDS011;6362;50.208;9.182;2022-09-03T11:44:58;2.45;;;1.05;;
12593;SDS011;6362;50.208;9.182;2022-09-03T11:47:38;3.83;;;1.10;;
12593;SDS011;6362;50.208;9.182;2022-09-03T11:50:07;2.25;;;1.02;;
12593;SDS011;6362;50.208;9.182;2022-09-03T11:52:45;5.15;;;1.10;;
12593;SDS011;6362;50.208;9.182;2022-09-03T11:55:11;3.20;;;1.00;;
12593;SDS011;6362;50.208;9.182;2022-09-03T11:57:49;3.13;;;1.10;;
12593;SDS011;6362;50.208;9.182;2022-09-03T12:00:15;2.55;;;1.15;;
12593;SDS011;6362;50.208;9.182;2022-09-03T12:02:47;3.40;;;1.00;;
12593;SDS011;6362;50.208;9.182;2022-09-03T12:13:21;1.87;;;1.00;;
12593;SDS011;6362;50.208;9.182;2022-09-03T12:19:12;1.88;;;1.00;;
12593;SDS011;6362;50.208;9.182;2022-09-03T12:22:00;2.50;;;1.20;;
12593;SDS011;6362;50.208;9.182;2022-09-03T12:24:27;1.80;;;1.05;;
12593;SDS011;6362;50.208;9.182;2022-09-03T12:26:56;3.72;;;1.05;;
12593;SDS011;6362;50.208;9.182;2022-09-03T12:29:26;3.90;;;0.90;;
12593;SDS011;6362;50.208;9.182;2022-09-03T12:31:53;3.47;;;0.90;;
12593;SDS011;6362;50.208;9.182;2022-09-03T12:34:20;2.70;;;0.90;;
12593;SDS011;6362;50.208;9.182;2022-09-03T12:36:48;7.63;;;1.10;;
12593;SDS011;6362;50.208;9.182;2022-09-03T12:39:19;2.00;;;1.00;;
12593;SDS011;6362;50.208;9.182;2022-09-03T12:44:24;5.68;;;1.13;;
12593;SDS011;6362;50.208;9.182;2022-09-03T12:47:08;3.45;;;1.00;;
12593;SDS011;6362;50.208;9.182;2022-09-03T12:49:43;3.72;;;1.02;;
12593;SDS011;6362;50.208;9.182;2022-09-03T12:52:32;1.38;;;0.90;;
12593;SDS011;6362;50.208;9.182;2022-09-03T12:55:02;1.85;;;0.90;;
12593;SDS011;6362;50.208;9.182;2022-09-03T12:57:51;2.72;;;0.98;;
12593;SDS011;6362;50.208;9.182;2022-09-03T13:00:21;4.03;;;0.95;;
12593;SDS011;6362;50.208;9.182;2022-09-03T13:05:58;4.60;;;1.15;;
12593;SDS011;6362;50.208;9.182;2022-09-03T13:08:28;5.72;;;0.95;;
12593;SDS011;6362;50.208;9.182;2022-09-03T13:10:57;2.03;;;1.00;;
12593;SDS011;6362;50.208;9.182;2022-09-03T13:13:35;2.47;;;0.93;;
12593;SDS011;6362;50.208;9.182;2022-09-03T13:16:05;2.40;;;0.82;;
12593;SDS011;6362;50.208;9.182;2022-09-03T13:19:42;4.18;;;0.90;;
12593;SDS011;6362;50.208;9.182;2022-09-03T13:25:07;2.58;;;0.90;;
12593;SDS011;6362;50.208;9.182;2022-09-03T13:27:45;2.97;;;0.80;;
12593;SDS011;6362;50.208;9.182;2022-09-03T13:30:21;3.35;;;0.90;;
12593;SDS011;6362;50.208;9.182;2022-09-03T13:32:56;3.28;;;0.80;;
12593;SDS011;6362;50.208;9.182;2022-09-03T13:35:41;1.98;;;0.90;;
12593;SDS011;6362;50.208;9.182;2022-09-03T13:41:01;2.30;;;0.90;;
12593;SDS011;6362;50.208;9.182;2022-09-03T13:48:56;2.33;;;0.80;;
12593;SDS011;6362;50.208;9.182;2022-09-03T13:51:48;1.00;;;0.80;;
12593;SDS011;6362;50.208;9.182;2022-09-03T13:54:29;1.40;;;0.60;;
12593;SDS011;6362;50.208;9.182;2022-09-03T13:57:00;2.75;;;0.70;;
12593;SDS011;6362;50.208;9.182;2022-09-03T13:59:34;1.02;;;0.60;;
12593;SDS011;6362;50.208;9.182;2022-09-03T14:02:21;1.40;;;0.90;;
12593;SDS011;6362;50.208;9.182;2022-09-03T14:10:22;2.00;;;0.80;;
12593;SDS011;6362;50.208;9.182;2022-09-03T14:18:34;1.20;;;0.70;;
12593;SDS011;6362;50.208;9.182;2022-09-03T14:21:16;2.03;;;0.93;;
12593;SDS011;6362;50.208;9.182;2022-09-03T14:24:21;3.03;;;0.95;;
12593;SDS011;6362;50.208;9.182;2022-09-03T14:27:20;1.13;;;0.77;;
12593;SDS011;6362;50.208;9.182;2022-09-03T14:29:33;4.13;;;0.90;;
12593;SDS011;6362;50.208;9.182;2022-09-03T14:34:54;1.25;;;0.70;;
12593;SDS011;6362;50.208;9.182;2022-09-03T14:51:29;2.47;;;0.80;;
12593;SDS011;6362;50.208;9.182;2022-09-03T15:08:00;2.15;;;0.90;;
12593;SDS011;6362;50.208;9.182;2022-09-03T15:13:18;1.80;;;1.08;;
12593;SDS011;6362;50.208;9.182;2022-09-03T15:22:44;3.03;;;0.90;;
12593;SDS011;6362;50.208;9.182;2022-09-03T15:24:42;1.73;;;0.90;;
12593;SDS011;6362;50.208;9.182;2022-09-03T15:29:58;2.83;;;0.90;;
12593;SDS011;6362;50.208;9.182;2022-09-03T15:32:37;2.72;;;0.75;;
12593;SDS011;6362;50.208;9.182;2022-09-03T15:35:35;2.00;;;1.10;;
12593;SDS011;6362;50.208;9.182;2022-09-03T15:43:57;2.55;;;0.90;;
12593;SDS011;6362;50.208;9.182;2022-09-03T15:46:36;2.30;;;1.10;;
12593;SDS011;6362;50.208;9.182;2022-09-03T15:54:47;1.02;;;0.80;;
12593;SDS011;6362;50.208;9.182;2022-09-03T15:57:27;1.98;;;1.00;;
12593;SDS011;6362;50.208;9.182;2022-09-03T16:00:00;3.20;;;1.05;;
12593;SDS011;6362;50.208;9.182;2022-09-03T16:09:59;2.10;;;0.98;;
12593;SDS011;6362;50.208;9.182;2022-09-03T16:12:51;2.25;;;0.80;;
12593;SDS011;6362;50.208;9.182;2022-09-03T16:15:32;1.20;;;0.70;;
12593;SDS011;6362;50.208;9.182;2022-09-03T16:18:34;1.95;;;0.80;;
12593;SDS011;6362;50.208;9.182;2022-09-03T16:21:20;2.17;;;0.80;;
12593;SDS011;6362;50.208;9.182;2022-09-03T16:28:58;3.38;;;0.77;;
12593;SDS011;6362;50.208;9.182;2022-09-03T16:31:34;1.40;;;0.70;;
12593;SDS011;6362;50.208;9.182;2022-09-03T16:34:22;1.30;;;0.80;;
12593;SDS011;6362;50.208;9.182;2022-09-03T16:45:13;3.08;;;0.80;;
12593;SDS011;6362;50.208;9.182;2022-09-03T16:48:34;4.05;;;0.90;;
12593;SDS011;6362;50.208;9.182;2022-09-03T17:06:53;1.27;;;0.90;;
12593;SDS011;6362;50.208;9.182;2022-09-03T17:09:43;1.45;;;0.80;;
12593;SDS011;6362;50.208;9.182;2022-09-03T17:12:13;1.60;;;0.88;;
12593;SDS011;6362;50.208;9.182;2022-09-03T17:25:37;4.30;;;1.00;;
12593;SDS011;6362;50.208;9.182;2022-09-03T17:30:56;2.50;;;1.13;;
12593;SDS011;6362;50.208;9.182;2022-09-03T17:36:16;2.10;;;1.20;;
12593;SDS011;6362;50.208;9.182;2022-09-03T17:41:53;1.90;;;1.20;;
12593;SDS011;6362;50.208;9.182;2022-09-03T17:44:42;2.92;;;1.10;;
12593;SDS011;6362;50.208;9.182;2022-09-03T17:50:06;2.50;;;1.10;;
12593;SDS011;6362;50.208;9.182;2022-09-03T17:55:27;2.65;;;0.90;;
12593;SDS011;6362;50.208;9.182;2022-09-03T18:03:40;1.73;;;1.00;;
12593;SDS011;6362;50.208;9.182;2022-09-03T18:06:29;2.20;;;1.20;;
12593;SDS011;6362;50.208;9.182;2022-09-03T18:14:59;2.60;;;1.00;;
12593;SDS011;6362;50.208;9.182;2022-09-03T18:18:03;1.70;;;1.15;;
12593;SDS011;6362;50.208;9.182;2022-09-03T18:20:46;1.75;;;1.10;;
12593;SDS011;6362;50.208;9.182;2022-09-03T18:23:39;1.40;;;0.90;;
12593;SDS011;6362;50.208;9.182;2022-09-03T18:26:42;2.13;;;1.20;;
12593;SDS011;6362;50.208;9.182;2022-09-03T18:29:54;2.90;;;1.20;;
12593;SDS011;6362;50.208;9.182;2022-09-03T18:32:40;4.32;;;1.30;;
12593;SDS011;6362;50.208;9.182;2022-09-03T18:35:25;2.03;;;1.20;;
12593;SDS011;6362;50.208;9.182;2022-09-03T18:38:12;2.40;;;1.30;;
12593;SDS011;6362;50.208;9.182;2022-09-03T18:51:06;2.83;;;1.35;;
12593;SDS011;6362;50.208;9.182;2022-09-03T18:54:10;3.25;;;1.42;;
12593;SDS011;6362;50.208;9.182;2022-09-03T18:56:57;3.42;;;1.40;;
12593;SDS011;6362;50.208;9.182;2022-09-03T19:09:02;3.55;;;1.48;;
12593;SDS011;6362;50.208;9.182;2022-09-03T19:11:54;3.78;;;1.35;;
12593;SDS011;6362;50.208;9.182;2022-09-03T19:20:57;1.90;;;1.33;;
12593;SDS011;6362;50.208;9.182;2022-09-03T19:23:42;2.67;;;1.40;;
12593;SDS011;6362;50.208;9.182;2022-09-03T19:26:39;2.30;;;1.40;;
12593;SDS011;6362;50.208;9.182;2022-09-03T19:32:22;2.65;;;1.48;;
12593;SDS011;6362;50.208;9.182;2022-09-03T19:35:22;3.70;;;1.90;;
12593;SDS011;6362;50.208;9.182;2022-09-03T19:38:25;3.30;;;2.00;;
12593;SDS011;6362;50.208;9.182;2022-09-03T19:41:29;2.60;;;1.50;;
12593;SDS011;6362;50.208;9.182;2022-09-03T19:47:02;2.70;;;1.50;;
12593;SDS011;6362;50.208;9.182;2022-09-03T19:49:55;2.88;;;1.50;;
12593;SDS011;6362;50.208;9.182;2022-09-03T19:52:53;4.22;;;1.65;;
12593;SDS011;6362;50.208;9.182;2022-09-03T19:55:43;2.13;;;1.50;;
12593;SDS011;6362;50.208;9.182;2022-09-03T19:58:30;3.28;;;1.58;;
12593;SDS011;6362;50.208;9.182;2022-09-03T20:01:17;2.65;;;1.40;;
12593;SDS011;6362;50.208;9.182;2022-09-03T20:04:07;2.92;;;1.63;;
12593;SDS011;6362;50.208;9.182;2022-09-03T20:06:56;2.42;;;1.27;;
12593;SDS011;6362;50.208;9.182;2022-09-03T20:09:42;3.70;;;1.60;;
12593;SDS011;6362;50.208;9.182;2022-09-03T20:12:29;3.20;;;1.80;;
12593;SDS011;6362;50.208;9.182;2022-09-03T20:15:04;3.65;;;1.60;;
12593;SDS011;6362;50.208;9.182;2022-09-03T20:17:37;2.30;;;1.55;;
12593;SDS011;6362;50.208;9.182;2022-09-03T20:23:22;3.20;;;1.67;;
12593;SDS011;6362;50.208;9.182;2022-09-03T20:34:08;2.67;;;1.50;;
12593;SDS011;6362;50.208;9.182;2022-09-03T20:47:57;3.55;;;1.40;;
12593;SDS011;6362;50.208;9.182;2022-09-03T20:55:52;2.92;;;1.75;;
12593;SDS011;6362;50.208;9.182;2022-09-03T20:58:32;2.60;;;1.50;;
12593;SDS011;6362;50.208;9.182;2022-09-03T21:01:04;2.58;;;1.60;;
12593;SDS011;6362;50.208;9.182;2022-09-03T21:17:28;3.78;;;1.88;;
12593;SDS011;6362;50.208;9.182;2022-09-03T21:28:56;3.13;;;1.90;;
12593;SDS011;6362;50.208;9.182;2022-09-03T21:34:28;2.63;;;1.80;;